Time;durP1;ratioP1;P1;durP2;ratioP2;P2;SDS_P1;SDS_P2;PMS_P1;PMS_P2;Temp;Humidity;BMP_temperature;BMP_pressure;BME280_temperature;BME280_humidity;BME280_pressure;Samples;Min_cycle;Max_cycle;Signal;HPM_P1;HPM_P2
2021/10/03 00:00:00;;;;;;;2.53;0.50;;;18.90;99.90;;;;;;5093306;28;20027;-75
2021/10/03 00:02:29;;;;;;;0.60;0.40;;;18.90;99.90;;;;;;5091934;28;20380;-78
2021/10/03 00:04:57;;;;;;;1.35;0.68;;;18.90;99.90;;;;;;5093353;28;20099;-78
2021/10/03 00:07:23;;;;;;;1.33;0.50;;;18.90;99.90;;;;;;5092745;28;20020;-77
2021/10/03 00:09:52;;;;;;;0.80;0.50;;;18.90;99.90;;;;;;5093182;28;20023;-78
2021/10/03 00:12:20;;;;;;;1.33;0.65;;;18.90;99.90;;;;;;5092861;28;20110;-77
2021/10/03 00:14:46;;;;;;;1.13;0.45;;;18.90;99.90;;;;;;5093287;28;20016;-76
2021/10/03 00:17:12;;;;;;;1.65;0.45;;;18.90;99.90;;;;;;5091849;28;20496;-77
2021/10/03 00:19:39;;;;;;;1.60;0.70;;;18.90;99.90;;;;;;5092836;28;20081;-78
2021/10/03 00:22:05;;;;;;;2.42;0.40;;;18.90;99.90;;;;;;5092979;28;20074;-79
2021/10/03 00:24:31;;;;;;;0.57;0.40;;;18.90;99.90;;;;;;5092705;28;20103;-76
2021/10/03 00:26:58;;;;;;;1.63;0.50;;;18.90;99.90;;;;;;5092921;28;20103;-75
2021/10/03 00:29:24;;;;;;;1.27;0.50;;;18.90;99.90;;;;;;5092419;28;20126;-75
2021/10/03 00:31:50;;;;;;;1.05;0.50;;;18.90;99.90;;;;;;5092579;28;20100;-76
2021/10/03 00:34:16;;;;;;;0.80;0.40;;;18.90;99.90;;;;;;5092302;28;20024;-76
2021/10/03 00:36:42;;;;;;;1.08;0.60;;;18.90;99.90;;;;;;5092676;28;20027;-75
2021/10/03 00:39:08;;;;;;;0.90;0.50;;;18.90;99.90;;;;;;5092652;28;20035;-75
2021/10/03 00:41:34;;;;;;;0.52;0.30;;;18.90;99.90;;;;;;5092260;28;20020;-76
2021/10/03 00:44:00;;;;;;;1.25;0.45;;;18.90;99.90;;;;;;5092561;28;20026;-76
2021/10/03 00:46:26;;;;;;;1.00;0.40;;;18.90;99.90;;;;;;5092056;28;20020;-76
2021/10/03 00:48:52;;;;;;;0.45;0.30;;;18.90;99.90;;;;;;5092491;28;20388;-76
2021/10/03 00:51:18;;;;;;;1.83;0.57;;;18.90;99.90;;;;;;5091765;28;20384;-75
2021/10/03 00:53:45;;;;;;;1.00;0.50;;;18.90;99.90;;;;;;5092559;28;20027;-75
2021/10/03 00:56:15;;;;;;;1.10;0.52;;;18.90;99.90;;;;;;5092289;28;20077;-77
2021/10/03 00:58:42;;;;;;;0.65;0.40;;;18.90;99.90;;;;;;5092057;28;20059;-77
2021/10/03 01:01:08;;;;;;;1.13;0.50;;;18.90;99.90;;;;;;5090793;28;20442;-78
2021/10/03 01:03:35;;;;;;;1.00;0.40;;;18.90;99.90;;;;;;5091887;28;20074;-75
2021/10/03 01:06:04;;;;;;;0.73;0.43;;;18.90;99.90;;;;;;5092032;28;20032;-78
2021/10/03 01:08:30;;;;;;;0.95;0.40;;;18.90;99.90;;;;;;5091809;28;20020;-78
2021/10/03 01:10:56;;;;;;;0.52;0.40;;;18.90;99.90;;;;;;5091956;28;20031;-77
2021/10/03 01:13:23;;;;;;;0.85;0.50;;;18.90;99.90;;;;;;5091791;28;20024;-78
2021/10/03 01:15:52;;;;;;;0.95;0.38;;;18.90;99.90;;;;;;5092084;28;20042;-78
2021/10/03 01:18:19;;;;;;;0.75;0.40;;;18.80;99.90;;;;;;5091401;28;20024;-79
2021/10/03 01:20:45;;;;;;;0.52;0.32;;;18.80;99.90;;;;;;5091164;28;20063;-76
2021/10/03 01:23:13;;;;;;;1.08;0.40;;;18.90;99.90;;;;;;5092058;28;20027;-79
2021/10/03 01:25:44;;;;;;;1.27;0.68;;;18.80;99.90;;;;;;5091572;28;20028;-78
2021/10/03 01:28:11;;;;;;;0.50;0.30;;;18.80;99.90;;;;;;5091770;28;20043;-76
2021/10/03 01:30:39;;;;;;;0.75;0.40;;;18.80;99.90;;;;;;5091226;28;20028;-77
2021/10/03 01:33:05;;;;;;;0.70;0.40;;;18.80;99.90;;;;;;5089961;28;20036;-77
2021/10/03 01:35:31;;;;;;;1.52;0.40;;;18.80;99.90;;;;;;5091324;28;20050;-74
2021/10/03 01:37:57;;;;;;;2.53;0.40;;;18.80;99.90;;;;;;5091506;28;20399;-75
2021/10/03 01:40:23;;;;;;;1.45;0.30;;;18.80;99.90;;;;;;5090075;28;20633;-78
2021/10/03 01:42:50;;;;;;;1.10;0.40;;;18.80;99.90;;;;;;5091568;28;20077;-76
2021/10/03 01:45:18;;;;;;;0.95;0.40;;;18.80;99.90;;;;;;5090886;28;20508;-76
2021/10/03 01:48:03;;;;;;;1.17;0.40;;;18.80;99.90;;;;;;5091447;28;20388;-75
2021/10/03 01:50:29;;;;;;;0.50;0.40;;;18.80;99.90;;;;;;5091149;28;20097;-75
2021/10/03 01:52:55;;;;;;;0.70;0.40;;;18.80;99.90;;;;;;5091375;28;20032;-76
2021/10/03 01:55:21;;;;;;;1.08;0.30;;;18.80;99.90;;;;;;5091111;28;20491;-76
2021/10/03 01:57:47;;;;;;;0.68;0.30;;;18.80;99.90;;;;;;5089860;28;20466;-77
2021/10/03 02:00:13;;;;;;;1.23;0.60;;;18.80;99.90;;;;;;5091627;28;20028;-77
2021/10/03 02:02:38;;;;;;;2.65;0.57;;;18.80;99.90;;;;;;5089802;28;20031;-77
2021/10/03 02:05:05;;;;;;;0.70;0.30;;;18.80;99.90;;;;;;5091311;28;20399;-76
2021/10/03 02:07:31;;;;;;;2.40;0.57;;;18.80;99.90;;;;;;5090791;28;20020;-75
2021/10/03 02:09:57;;;;;;;0.65;0.30;;;18.80;99.90;;;;;;5091054;28;20025;-76
2021/10/03 02:12:23;;;;;;;1.25;0.40;;;18.80;99.90;;;;;;5090893;28;20046;-75
2021/10/03 02:14:49;;;;;;;0.60;0.30;;;18.80;99.90;;;;;;5091038;28;20487;-75
2021/10/03 02:17:14;;;;;;;0.90;0.30;;;18.80;99.90;;;;;;5091429;28;20028;-76
2021/10/03 02:19:41;;;;;;;0.52;0.30;;;18.80;99.90;;;;;;5090928;28;20016;-77
2021/10/03 02:22:08;;;;;;;0.95;0.68;;;18.80;99.90;;;;;;5091148;28;20032;-76
2021/10/03 02:24:35;;;;;;;1.83;0.80;;;18.80;99.90;;;;;;5090873;28;20023;-75
2021/10/03 02:27:02;;;;;;;1.27;0.47;;;18.80;99.90;;;;;;5090831;28;20499;-75
2021/10/03 02:29:28;;;;;;;1.40;0.32;;;18.80;99.90;;;;;;5090362;28;20442;-75
2021/10/03 02:31:57;;;;;;;0.82;0.32;;;18.80;99.90;;;;;;5090854;28;20036;-74
2021/10/03 02:34:22;;;;;;;0.50;0.40;;;18.80;99.90;;;;;;5090865;28;20021;-75
2021/10/03 02:36:49;;;;;;;1.23;0.30;;;18.70;99.90;;;;;;5091110;28;20451;-74
2021/10/03 02:39:14;;;;;;;0.90;0.43;;;18.80;99.90;;;;;;5091391;28;20031;-76
2021/10/03 02:41:40;;;;;;;1.70;0.45;;;18.80;99.90;;;;;;5090659;28;20020;-75
2021/10/03 02:44:08;;;;;;;1.33;0.38;;;18.70;99.90;;;;;;5090821;28;20028;-75
2021/10/03 02:46:34;;;;;;;0.93;0.30;;;18.80;99.90;;;;;;5089318;28;20028;-75
2021/10/03 02:49:01;;;;;;;1.42;0.50;;;18.80;99.90;;;;;;5090714;28;20081;-75
2021/10/03 02:51:29;;;;;;;1.05;0.38;;;18.80;99.90;;;;;;5090504;28;20055;-74
2021/10/03 02:53:56;;;;;;;1.80;0.40;;;18.70;99.90;;;;;;5090636;28;20492;-75
2021/10/03 02:56:25;;;;;;;1.10;0.40;;;18.70;99.90;;;;;;5090347;28;20020;-75
2021/10/03 02:58:51;;;;;;;0.90;0.40;;;18.70;99.90;;;;;;5093222;28;20456;-75
2021/10/03 03:01:18;;;;;;;1.00;0.40;;;18.70;99.90;;;;;;5094117;28;20051;-75
2021/10/03 03:03:44;;;;;;;1.05;0.40;;;18.70;99.90;;;;;;5093104;28;20573;-79
2021/10/03 03:06:10;;;;;;;1.70;0.50;;;18.70;99.90;;;;;;5093266;28;20035;-76
2021/10/03 03:08:36;;;;;;;1.27;0.40;;;18.70;99.90;;;;;;5093347;28;20028;-76
2021/10/03 03:11:02;;;;;;;1.77;0.38;;;18.70;99.90;;;;;;5092243;28;20080;-76
2021/10/03 03:13:28;;;;;;;1.67;0.30;;;18.70;99.90;;;;;;5092116;28;20032;-76
2021/10/03 03:15:55;;;;;;;1.48;0.40;;;18.70;99.90;;;;;;5092563;28;20035;-75
2021/10/03 03:18:21;;;;;;;0.70;0.40;;;18.70;99.90;;;;;;5092442;28;20522;-77
2021/10/03 03:20:47;;;;;;;0.75;0.43;;;18.70;99.90;;;;;;5092974;28;20398;-78
2021/10/03 03:23:13;;;;;;;1.55;0.40;;;18.70;99.90;;;;;;5092782;28;20028;-78
2021/10/03 03:25:38;;;;;;;1.90;0.40;;;18.70;99.90;;;;;;5101361;28;20022;-77
2021/10/03 03:28:06;;;;;;;0.98;0.40;;;18.70;99.90;;;;;;5114208;28;20027;-77
2021/10/03 03:30:33;;;;;;;2.08;0.52;;;18.70;99.90;;;;;;5113196;28;20034;-75
2021/10/03 03:32:59;;;;;;;1.67;0.40;;;18.70;99.90;;;;;;5112129;28;20394;-75
2021/10/03 03:35:25;;;;;;;1.17;0.32;;;18.70;99.90;;;;;;5112542;28;20019;-76
2021/10/03 03:37:51;;;;;;;0.73;0.40;;;18.70;99.90;;;;;;5112778;28;20386;-76
2021/10/03 03:40:19;;;;;;;1.13;0.30;;;18.70;99.90;;;;;;5113183;28;20463;-77
2021/10/03 03:42:45;;;;;;;1.35;0.40;;;18.70;99.90;;;;;;5111738;28;20026;-78
2021/10/03 03:45:11;;;;;;;2.25;0.40;;;18.70;99.90;;;;;;5113198;28;20016;-74
2021/10/03 03:47:39;;;;;;;0.82;0.38;;;18.70;99.90;;;;;;5113528;28;20027;-76
2021/10/03 03:50:07;;;;;;;1.42;0.40;;;18.70;99.90;;;;;;5112626;28;20019;-75
2021/10/03 03:52:33;;;;;;;0.60;0.30;;;18.70;99.90;;;;;;5113232;28;20032;-77
2021/10/03 03:54:58;;;;;;;0.90;0.30;;;18.70;99.90;;;;;;5113848;28;20024;-75
2021/10/03 03:57:24;;;;;;;1.48;0.30;;;18.70;99.90;;;;;;5113850;28;20030;-75
2021/10/03 03:59:50;;;;;;;1.52;0.30;;;18.70;99.90;;;;;;5113708;28;20024;-77
2021/10/03 04:02:15;;;;;;;1.52;0.45;;;18.70;99.90;;;;;;5114241;28;20027;-77
2021/10/03 04:04:42;;;;;;;0.40;0.30;;;18.70;99.90;;;;;;5113203;28;20027;-77
2021/10/03 04:07:07;;;;;;;1.15;0.38;;;18.70;99.90;;;;;;5113593;28;20027;-78
2021/10/03 04:09:34;;;;;;;0.80;0.40;;;18.70;99.90;;;;;;5112316;28;20028;-77
2021/10/03 04:12:00;;;;;;;1.45;0.40;;;18.60;99.90;;;;;;5113533;28;20140;-77
2021/10/03 04:14:26;;;;;;;1.70;0.60;;;18.70;99.90;;;;;;5113189;28;20480;-78
2021/10/03 04:16:52;;;;;;;2.28;0.45;;;18.70;99.90;;;;;;5113295;28;20107;-78
2021/10/03 04:19:17;;;;;;;0.80;0.40;;;18.70;99.90;;;;;;5113775;28;20024;-78
2021/10/03 04:21:43;;;;;;;2.05;0.40;;;18.70;99.90;;;;;;5113332;28;20473;-77
2021/10/03 04:24:09;;;;;;;0.98;0.45;;;18.70;99.90;;;;;;5113320;28;20383;-77
2021/10/03 04:26:34;;;;;;;0.55;0.30;;;18.70;99.90;;;;;;5113004;28;20425;-76
2021/10/03 04:29:00;;;;;;;1.33;0.30;;;18.60;99.90;;;;;;5112947;27;20043;-77
2021/10/03 04:31:26;;;;;;;0.93;0.30;;;18.70;99.90;;;;;;5112775;28;20539;-77
2021/10/03 04:33:51;;;;;;;1.45;0.45;;;18.60;99.90;;;;;;5112883;28;20072;-78
2021/10/03 04:36:17;;;;;;;1.58;0.30;;;18.60;99.90;;;;;;5113164;28;20024;-78
2021/10/03 04:38:42;;;;;;;2.15;0.32;;;18.70;99.90;;;;;;5112372;28;20034;-78
2021/10/03 04:41:08;;;;;;;1.15;0.40;;;18.60;99.90;;;;;;5112976;28;20019;-77
2021/10/03 04:43:34;;;;;;;0.90;0.30;;;18.60;99.90;;;;;;5112685;28;20035;-77
2021/10/03 04:46:00;;;;;;;1.05;0.30;;;18.60;99.90;;;;;;5112732;28;20019;-77
2021/10/03 04:48:25;;;;;;;0.82;0.30;;;18.60;99.90;;;;;;5112772;28;20024;-77
2021/10/03 04:50:51;;;;;;;0.98;0.47;;;18.60;99.90;;;;;;5112474;28;20020;-78
2021/10/03 04:53:17;;;;;;;1.80;0.57;;;18.60;99.90;;;;;;5112841;28;20077;-77
2021/10/03 04:55:42;;;;;;;2.00;0.52;;;18.60;99.90;;;;;;5112331;28;20020;-78
2021/10/03 04:58:09;;;;;;;1.92;0.45;;;18.60;99.90;;;;;;5112603;28;20399;-75
2021/10/03 05:00:35;;;;;;;0.82;0.38;;;18.60;99.90;;;;;;5112151;28;20027;-75
2021/10/03 05:03:00;;;;;;;1.85;0.55;;;18.60;99.90;;;;;;5112593;28;20024;-77
2021/10/03 05:05:26;;;;;;;2.03;0.50;;;18.60;99.90;;;;;;5111908;28;20036;-77
2021/10/03 05:07:51;;;;;;;1.42;0.38;;;18.60;99.90;;;;;;5112365;28;20058;-78
2021/10/03 05:10:17;;;;;;;0.93;0.30;;;18.60;99.90;;;;;;5112675;28;20048;-75
2021/10/03 05:12:43;;;;;;;0.55;0.20;;;18.60;99.90;;;;;;5111921;28;20049;-75
2021/10/03 05:15:09;;;;;;;0.57;0.30;;;18.60;99.90;;;;;;5112140;28;20031;-77
2021/10/03 05:17:34;;;;;;;1.42;0.38;;;18.60;99.90;;;;;;5111774;28;20054;-78
2021/10/03 05:20:00;;;;;;;1.27;0.30;;;18.60;99.90;;;;;;5111841;28;20023;-74
2021/10/03 05:22:26;;;;;;;1.80;0.40;;;18.60;99.90;;;;;;5111880;28;20038;-86
2021/10/03 05:24:52;;;;;;;0.93;0.32;;;18.60;99.90;;;;;;5112173;28;20098;-78
2021/10/03 05:27:19;;;;;;;1.13;0.30;;;18.60;99.90;;;;;;5112338;28;20019;-78
2021/10/03 05:29:45;;;;;;;1.35;0.47;;;18.60;99.90;;;;;;5111544;28;20407;-79
2021/10/03 05:32:11;;;;;;;1.33;0.30;;;18.60;99.90;;;;;;5112058;28;20039;-78
2021/10/03 05:34:37;;;;;;;1.83;0.40;;;18.60;99.90;;;;;;5111783;28;20031;-79
2021/10/03 05:37:03;;;;;;;0.73;0.22;;;18.60;99.90;;;;;;5111993;28;20487;-79
2021/10/03 05:39:29;;;;;;;6.60;0.50;;;18.60;99.90;;;;;;5111549;28;20020;-76
2021/10/03 05:41:55;;;;;;;1.13;0.30;;;18.60;99.90;;;;;;5111561;28;20084;-78
2021/10/03 05:44:20;;;;;;;1.60;0.80;;;18.60;99.90;;;;;;5112150;28;20095;-81
2021/10/03 05:46:46;;;;;;;3.83;0.75;;;18.60;99.90;;;;;;5110206;28;20488;-82
2021/10/03 05:49:12;;;;;;;0.68;0.22;;;18.60;99.90;;;;;;5111384;28;20795;-78
2021/10/03 05:51:37;;;;;;;3.33;0.50;;;18.60;99.90;;;;;;5111466;28;20036;-75
2021/10/03 05:54:04;;;;;;;3.80;0.40;;;18.60;99.90;;;;;;5111725;28;20025;-76
2021/10/03 05:56:30;;;;;;;5.13;0.50;;;18.60;99.90;;;;;;5111506;28;20403;-75
2021/10/03 05:58:55;;;;;;;1.00;0.40;;;18.60;99.90;;;;;;5111697;28;20479;-76
2021/10/03 06:01:21;;;;;;;1.60;0.50;;;18.60;99.90;;;;;;5111935;28;20020;-73
2021/10/03 06:03:47;;;;;;;4.07;0.30;;;18.60;99.90;;;;;;5111113;28;20019;-72
2021/10/03 06:06:12;;;;;;;1.85;0.40;;;18.60;99.90;;;;;;5111724;28;20357;-77
2021/10/03 06:08:38;;;;;;;2.10;0.50;;;18.60;99.90;;;;;;5111363;28;20031;-75
2021/10/03 06:11:04;;;;;;;3.80;0.43;;;18.60;99.90;;;;;;5111420;28;20027;-76
2021/10/03 06:13:29;;;;;;;1.70;0.40;;;18.60;99.90;;;;;;5111403;28;20161;-78
2021/10/03 06:15:57;;;;;;;1.48;0.40;;;18.60;99.90;;;;;;5111588;28;20074;-76
2021/10/03 06:18:23;;;;;;;7.93;0.45;;;18.60;99.90;;;;;;5111448;28;20395;-81
2021/10/03 06:20:49;;;;;;;0.50;0.40;;;18.70;99.90;;;;;;5111475;28;20031;-83
2021/10/03 06:23:15;;;;;;;3.55;0.40;;;18.60;99.90;;;;;;5111370;28;20069;-83
2021/10/03 06:25:41;;;;;;;2.17;0.40;;;18.70;99.90;;;;;;5111167;28;20483;-83
2021/10/03 06:28:07;;;;;;;1.60;0.80;;;18.70;99.90;;;;;;5111302;28;20027;-81
2021/10/03 06:30:33;;;;;;;1.95;0.40;;;18.70;99.90;;;;;;5110952;28;20055;-79
2021/10/03 06:33:00;;;;;;;3.15;0.50;;;18.70;99.90;;;;;;5113976;28;20031;-79
2021/10/03 06:35:29;;;;;;;4.95;0.85;;;18.70;99.90;;;;;;5115336;28;20023;-83
2021/10/03 06:37:58;;;;;;;8.15;1.17;;;18.80;99.90;;;;;;5115945;28;20432;-84
2021/10/03 06:40:25;;;;;;;3.22;0.80;;;18.80;99.90;;;;;;5115612;28;20106;-80
2021/10/03 06:42:51;;;;;;;4.63;0.70;;;18.80;99.90;;;;;;5115411;28;20487;-77
2021/10/03 06:45:16;;;;;;;4.60;0.90;;;18.80;99.90;;;;;;5093517;28;20038;-78
2021/10/03 06:47:42;;;;;;;2.67;0.63;;;18.90;99.90;;;;;;5085134;28;20012;-83
2021/10/03 06:50:08;;;;;;;1.67;0.80;;;18.90;99.90;;;;;;5094188;28;20032;-79
2021/10/03 06:52:35;;;;;;;88.97;10.70;;;18.90;99.90;;;;;;5075768;28;20488;-82
2021/10/03 06:55:00;;;;;;;14.40;2.65;;;18.90;99.90;;;;;;5074860;28;20516;-85
2021/10/03 06:57:26;;;;;;;13.55;1.13;;;19.00;99.90;;;;;;5073215;28;20067;-84
2021/10/03 06:59:52;;;;;;;3.80;0.80;;;19.00;99.90;;;;;;5074645;28;20028;-79
2021/10/03 07:02:24;;;;;;;2.58;0.80;;;19.00;99.90;;;;;;5072831;28;20033;-82
2021/10/03 07:04:50;;;;;;;1.67;0.68;;;19.00;99.90;;;;;;5091540;28;20027;-80
2021/10/03 07:07:16;;;;;;;2.70;0.50;;;19.10;99.90;;;;;;5094134;28;20798;-81
2021/10/03 07:09:42;;;;;;;5.10;0.80;;;19.10;99.90;;;;;;5092042;28;20028;-81
2021/10/03 07:12:07;;;;;;;3.28;1.05;;;19.10;99.90;;;;;;5092617;28;20105;-80
2021/10/03 07:14:33;;;;;;;4.68;0.70;;;19.10;99.90;;;;;;5093761;28;20446;-79
2021/10/03 07:16:59;;;;;;;7.65;1.10;;;19.10;99.90;;;;;;5094010;28;20059;-81
2021/10/03 07:19:24;;;;;;;3.35;0.77;;;19.10;99.90;;;;;;5093640;28;20085;-80
2021/10/03 07:21:50;;;;;;;2.28;0.88;;;19.20;99.90;;;;;;5094033;28;20541;-83
2021/10/03 07:24:16;;;;;;;4.25;0.80;;;19.20;99.90;;;;;;5093276;28;20032;-84
2021/10/03 07:26:41;;;;;;;3.95;1.00;;;19.20;99.90;;;;;;5093725;28;20030;-85
2021/10/03 07:29:07;;;;;;;7.78;1.23;;;19.20;99.90;;;;;;5094088;28;20032;-83
2021/10/03 07:31:34;;;;;;;1.30;0.57;;;19.20;99.90;;;;;;5093862;28;20433;-83
2021/10/03 07:34:00;;;;;;;4.88;1.00;;;19.20;99.90;;;;;;5093947;28;20032;-85
2021/10/03 07:36:26;;;;;;;4.35;0.93;;;19.30;99.90;;;;;;5094522;28;20026;-89
2021/10/03 07:38:51;;;;;;;5.60;1.10;;;19.30;99.90;;;;;;5093391;28;20031;-87
2021/10/03 07:41:19;;;;;;;3.75;0.63;;;19.30;99.90;;;;;;5094484;28;20053;-84
2021/10/03 07:43:46;;;;;;;16.65;1.20;;;19.30;99.90;;;;;;5091908;28;20028;-78
2021/10/03 07:46:12;;;;;;;2.40;0.68;;;19.30;99.90;;;;;;5092274;28;20036;-80
2021/10/03 07:48:37;;;;;;;4.18;0.95;;;19.30;99.90;;;;;;5093353;28;20022;-80
2021/10/03 07:51:03;;;;;;;7.07;1.00;;;19.30;99.90;;;;;;5093227;28;20107;-79
2021/10/03 07:53:30;;;;;;;3.05;0.60;;;19.30;99.90;;;;;;5093109;28;20468;-79
2021/10/03 07:55:56;;;;;;;6.47;0.98;;;19.30;99.90;;;;;;5093200;28;20020;-80
2021/10/03 07:58:22;;;;;;;3.47;0.90;;;19.30;99.90;;;;;;5093740;28;20082;-81
2021/10/03 08:00:48;;;;;;;3.78;0.95;;;19.30;99.90;;;;;;5093062;28;20025;-81
2021/10/03 08:03:14;;;;;;;2.50;0.80;;;19.30;99.90;;;;;;5093221;28;20016;-80
2021/10/03 08:05:40;;;;;;;5.00;0.70;;;19.30;99.90;;;;;;5091623;28;20369;-79
2021/10/03 08:08:06;;;;;;;3.53;0.70;;;19.30;99.90;;;;;;5093249;28;20017;-80
2021/10/03 08:10:32;;;;;;;3.92;1.30;;;19.30;99.90;;;;;;5091181;28;20028;-80
2021/10/03 08:12:58;;;;;;;2.83;0.77;;;19.30;99.90;;;;;;5091410;28;20411;-79
2021/10/03 08:15:28;;;;;;;5.78;0.80;;;19.30;99.90;;;;;;5091823;28;20032;-80
2021/10/03 08:17:54;;;;;;;2.78;0.75;;;19.30;99.90;;;;;;5093329;28;20077;-81
2021/10/03 08:20:21;;;;;;;1.92;0.70;;;19.30;99.90;;;;;;5092823;28;20020;-79
2021/10/03 08:22:47;;;;;;;3.83;0.90;;;19.30;99.90;;;;;;5092529;28;20377;-81
2021/10/03 08:25:14;;;;;;;5.18;0.85;;;19.30;99.90;;;;;;5092520;28;20035;-79
2021/10/03 08:27:40;;;;;;;4.13;0.75;;;19.40;99.90;;;;;;5092171;28;20101;-79
2021/10/03 08:30:07;;;;;;;3.38;0.70;;;19.30;99.90;;;;;;5092778;28;20055;-80
2021/10/03 08:32:33;;;;;;;2.97;1.20;;;19.40;99.90;;;;;;5092293;28;20024;-84
2021/10/03 08:34:58;;;;;;;3.75;0.70;;;19.40;99.90;;;;;;5092837;28;20034;-82
2021/10/03 08:37:24;;;;;;;9.07;0.80;;;19.40;99.90;;;;;;5092593;28;20097;-83
2021/10/03 08:39:52;;;;;;;4.10;0.80;;;19.40;99.90;;;;;;5092704;28;20392;-82
2021/10/03 08:42:18;;;;;;;7.22;1.10;;;19.40;99.90;;;;;;5092526;28;20023;-82
2021/10/03 08:44:44;;;;;;;6.05;0.68;;;19.40;99.90;;;;;;5092175;28;20032;-82
2021/10/03 08:47:10;;;;;;;6.72;1.20;;;19.40;99.90;;;;;;5092413;28;20069;-82
2021/10/03 08:49:37;;;;;;;6.63;1.20;;;19.40;99.90;;;;;;5092335;28;20042;-82
2021/10/03 08:52:04;;;;;;;3.22;0.85;;;19.40;99.90;;;;;;5092285;28;20027;-82
2021/10/03 08:54:37;;;;;;;5.90;1.30;;;19.40;99.90;;;;;;5091881;28;20020;-85
2021/10/03 08:57:04;;;;;;;2.70;1.15;;;19.40;99.90;;;;;;5093011;28;20040;-88
2021/10/03 08:59:30;;;;;;;4.85;1.05;;;19.40;99.90;;;;;;5092628;28;20093;-86
2021/10/03 09:01:58;;;;;;;3.17;0.90;;;19.40;99.90;;;;;;5093156;28;20484;-87
2021/10/03 09:04:32;;;;;;;7.22;1.10;;;19.40;99.90;;;;;;5093412;28;20036;-88
2021/10/03 09:07:05;;;;;;;4.78;1.00;;;19.40;99.90;;;;;;5093124;28;20437;-89
2021/10/03 09:09:51;;;;;;;2.78;0.88;;;19.40;99.90;;;;;;5092774;28;20052;-87
2021/10/03 09:12:35;;;;;;;5.35;0.70;;;19.40;99.90;;;;;;5092723;28;20044;-89
2021/10/03 09:15:13;;;;;;;6.00;1.20;;;19.40;99.90;;;;;;5092894;28;20042;-88
2021/10/03 09:17:39;;;;;;;3.38;0.80;;;19.50;99.90;;;;;;5092315;28;20024;-86
2021/10/03 09:20:20;;;;;;;6.00;0.88;;;19.50;99.90;;;;;;5091858;28;20081;-83
2021/10/03 09:23:01;;;;;;;8.60;2.50;;;19.50;99.90;;;;;;5091459;28;20111;-85
2021/10/03 09:25:33;;;;;;;11.68;0.82;;;19.50;99.90;;;;;;5091197;28;20024;-86
2021/10/03 09:27:58;;;;;;;6.88;1.25;;;19.50;99.90;;;;;;5090670;28;20042;-83
2021/10/03 09:30:35;;;;;;;6.22;0.88;;;19.50;99.90;;;;;;5092291;28;20095;-84
2021/10/03 09:33:03;;;;;;;8.60;1.05;;;19.60;99.90;;;;;;5091698;28;20044;-84
2021/10/03 09:35:33;;;;;;;7.47;0.93;;;19.60;99.90;;;;;;5091092;28;20023;-84
2021/10/03 09:38:07;;;;;;;7.22;1.23;;;19.60;99.90;;;;;;5091279;28;20031;-84
2021/10/03 09:40:33;;;;;;;7.43;1.25;;;19.60;99.90;;;;;;5091043;28;20043;-84
2021/10/03 09:43:02;;;;;;;7.82;1.25;;;19.60;99.90;;;;;;5091529;28;20524;-85
2021/10/03 09:45:28;;;;;;;7.70;0.75;;;19.60;99.90;;;;;;5091456;28;20016;-86
2021/10/03 09:48:02;;;;;;;5.65;1.17;;;19.70;99.90;;;;;;5091691;28;20449;-85
2021/10/03 09:50:29;;;;;;;5.30;0.90;;;19.70;99.90;;;;;;5091286;28;20016;-82
2021/10/03 09:52:55;;;;;;;4.38;0.90;;;19.70;99.90;;;;;;5091760;28;20089;-83
2021/10/03 09:55:25;;;;;;;1.98;0.90;;;19.70;99.90;;;;;;5091710;28;20495;-84
2021/10/03 09:57:56;;;;;;;2.40;0.75;;;19.70;99.90;;;;;;5091402;28;20112;-84
2021/10/03 10:00:24;;;;;;;5.57;1.17;;;19.70;99.90;;;;;;5091753;28;20024;-84
2021/10/03 10:02:51;;;;;;;4.18;0.75;;;19.80;99.90;;;;;;5090940;28;20016;-87
2021/10/03 10:05:23;;;;;;;2.72;0.90;;;19.80;99.90;;;;;;5091223;28;20019;-81
2021/10/03 10:07:49;;;;;;;2.58;0.90;;;19.80;99.90;;;;;;5088622;28;20395;-83
2021/10/03 10:10:15;;;;;;;2.72;1.20;;;19.80;99.90;;;;;;5089823;28;20020;-83
2021/10/03 10:12:56;;;;;;;6.47;0.88;;;19.80;99.90;;;;;;5089587;28;20039;-81
2021/10/03 10:15:24;;;;;;;4.15;0.82;;;19.80;99.90;;;;;;5091298;28;20027;-81
2021/10/03 10:17:51;;;;;;;4.75;0.70;;;19.90;99.90;;;;;;5090642;28;20028;-80
2021/10/03 10:20:24;;;;;;;1.95;0.80;;;19.80;99.90;;;;;;5090733;28;20020;-81
2021/10/03 10:22:57;;;;;;;2.95;1.00;;;19.90;99.90;;;;;;5090713;28;20103;-80
2021/10/03 10:25:52;;;;;;;1.85;0.85;;;19.90;99.90;;;;;;5090717;28;20031;-79
2021/10/03 10:28:29;;;;;;;1.20;0.60;;;20.00;99.90;;;;;;5089568;28;20078;-80
2021/10/03 10:31:12;;;;;;;2.55;0.73;;;20.00;99.90;;;;;;5090965;28;20024;-81
2021/10/03 10:33:50;;;;;;;5.25;0.82;;;20.00;99.90;;;;;;5090327;28;20039;-80
2021/10/03 10:36:24;;;;;;;2.05;0.90;;;20.00;99.90;;;;;;5089150;28;20064;-80
2021/10/03 10:39:23;;;;;;;3.08;0.70;;;20.00;99.90;;;;;;5089844;28;20024;-82
2021/10/03 10:41:54;;;;;;;1.83;0.73;;;20.10;99.90;;;;;;5078485;28;20047;-81
2021/10/03 10:44:28;;;;;;;3.55;0.80;;;20.10;99.90;;;;;;5090510;28;20466;-81
2021/10/03 10:46:54;;;;;;;2.17;0.70;;;20.10;99.90;;;;;;5091004;28;20467;-80
2021/10/03 10:49:38;;;;;;;2.35;0.85;;;20.10;99.90;;;;;;5084227;28;20031;-80
2021/10/03 10:52:18;;;;;;;4.38;0.70;;;20.20;99.90;;;;;;5068796;28;20037;-81
2021/10/03 10:54:59;;;;;;;2.15;0.70;;;20.10;99.90;;;;;;5068824;28;20032;-80
2021/10/03 10:57:30;;;;;;;3.72;0.70;;;20.20;99.90;;;;;;5070202;28;20032;-80
2021/10/03 11:00:27;;;;;;;5.47;0.82;;;20.20;99.90;;;;;;5072736;28;20388;-77
2021/10/03 11:02:58;;;;;;;3.42;0.73;;;20.20;99.90;;;;;;5090775;28;20024;-80
2021/10/03 11:05:36;;;;;;;5.57;1.00;;;20.20;99.90;;;;;;5090814;28;20036;-81
2021/10/03 11:08:08;;;;;;;1.58;0.70;;;20.20;99.90;;;;;;5090068;28;20384;-79
2021/10/03 11:10:58;;;;;;;5.57;1.02;;;20.10;99.90;;;;;;5088872;28;20107;-80
2021/10/03 11:13:48;;;;;;;4.53;1.80;;;20.10;99.90;;;;;;5090330;28;20522;-80
2021/10/03 11:16:24;;;;;;;6.65;0.80;;;20.10;99.90;;;;;;5089154;28;20032;-82
2021/10/03 11:18:52;;;;;;;10.50;1.00;;;20.10;99.90;;;;;;5092568;28;20020;-83
2021/10/03 11:21:32;;;;;;;4.50;1.08;;;20.10;99.90;;;;;;5093909;28;20024;-78
2021/10/03 11:24:07;;;;;;;4.32;2.10;;;20.10;99.90;;;;;;5093701;28;20024;-81
2021/10/03 11:26:53;;;;;;;8.70;2.20;;;20.10;99.90;;;;;;5092099;28;20410;-81
2021/10/03 11:29:21;;;;;;;13.68;3.92;;;20.20;99.90;;;;;;5093415;28;20501;-81
2021/10/03 11:31:49;;;;;;;9.63;3.35;;;20.20;99.90;;;;;;5093504;28;20042;-80
2021/10/03 11:34:29;;;;;;;13.38;4.70;;;20.30;99.90;;;;;;5092257;28;20938;-79
2021/10/03 11:37:00;;;;;;;16.17;4.10;;;20.40;99.90;;;;;;5093877;28;20103;-83
2021/10/03 11:39:39;;;;;;;14.70;3.75;;;20.40;99.90;;;;;;5095559;28;20020;-78
2021/10/03 11:42:08;;;;;;;12.55;3.85;;;20.50;99.90;;;;;;5096796;28;20023;-82
2021/10/03 11:44:35;;;;;;;12.45;3.30;;;20.50;99.90;;;;;;5093386;28;20023;-82
2021/10/03 11:47:13;;;;;;;12.68;3.28;;;20.60;99.90;;;;;;5093358;28;20054;-83
2021/10/03 11:49:42;;;;;;;10.68;3.35;;;20.60;99.90;;;;;;5092906;28;20453;-83
2021/10/03 11:52:13;;;;;;;11.20;3.00;;;20.60;99.90;;;;;;5093477;28;20468;-83
2021/10/03 11:54:45;;;;;;;13.00;3.08;;;20.70;99.90;;;;;;5092814;28;20044;-81
2021/10/03 11:57:29;;;;;;;5.25;2.22;;;20.70;99.90;;;;;;5093106;28;20095;-82
2021/10/03 12:00:08;;;;;;;8.48;2.50;;;20.80;99.90;;;;;;5092010;28;20047;-81
2021/10/03 12:02:42;;;;;;;6.78;1.73;;;20.80;99.90;;;;;;5092981;28;20030;-80
2021/10/03 12:05:10;;;;;;;7.25;1.80;;;20.80;99.90;;;;;;5093047;28;20102;-81
2021/10/03 12:07:36;;;;;;;5.38;1.67;;;20.90;99.90;;;;;;5092839;28;20052;-81
2021/10/03 12:10:11;;;;;;;7.93;1.80;;;20.90;99.40;;;;;;5092185;28;20384;-80
2021/10/03 12:12:43;;;;;;;5.57;2.17;;;21.00;99.60;;;;;;5092202;28;20457;-80
2021/10/03 12:15:08;;;;;;;6.90;1.77;;;21.00;99.30;;;;;;5092047;28;20032;-80
2021/10/03 12:17:47;;;;;;;6.78;1.42;;;21.00;99.10;;;;;;5092336;28;20364;-77
2021/10/03 12:20:12;;;;;;;4.45;1.48;;;21.10;98.80;;;;;;5092707;28;20027;-81
2021/10/03 12:22:55;;;;;;;8.32;1.90;;;21.10;98.60;;;;;;5092563;28;20099;-82
2021/10/03 12:25:21;;;;;;;9.75;2.28;;;21.20;98.20;;;;;;5092726;28;20044;-78
2021/10/03 12:27:59;;;;;;;5.82;1.77;;;21.20;98.20;;;;;;5092273;28;20066;-81
2021/10/03 12:30:25;;;;;;;11.30;1.80;;;21.20;98.10;;;;;;5090406;28;20047;-75
2021/10/03 12:33:03;;;;;;;6.75;1.50;;;21.20;98.10;;;;;;5092408;28;20063;-79
2021/10/03 12:35:29;;;;;;;9.18;1.77;;;21.30;98.50;;;;;;5091665;28;20472;-80
2021/10/03 12:37:54;;;;;;;9.20;1.40;;;21.30;98.40;;;;;;5092607;28;20030;-77
2021/10/03 12:40:22;;;;;;;6.30;1.50;;;21.30;97.90;;;;;;5091770;28;20111;-80
2021/10/03 12:42:48;;;;;;;5.53;1.20;;;21.30;97.60;;;;;;5092255;28;20046;-76
2021/10/03 12:45:15;;;;;;;6.97;1.73;;;21.30;97.20;;;;;;5090896;28;20455;-79
2021/10/03 12:47:41;;;;;;;5.28;1.55;;;21.40;97.30;;;;;;5092044;28;20032;-79
2021/10/03 12:50:09;;;;;;;77.25;5.38;;;21.40;97.30;;;;;;5091065;28;20020;-78